createdAt,value
2019-05-05T00:11:24.674Z,61.62
2019-05-05T00:26:31.602Z,61.95
2019-05-05T00:41:40.617Z,62.14
2019-05-05T00:56:48.851Z,62.75
2019-05-05T01:12:00.014Z,62.89
2019-05-05T01:27:07.478Z,62.77
2019-05-05T01:42:17.894Z,63.11
2019-05-05T01:57:25.651Z,62.88
2019-05-05T02:12:32.752Z,63.67
2019-05-05T02:27:39.605Z,64.21
2019-05-05T02:42:49.427Z,64.46
2019-05-05T02:57:58.231Z,64.79
2019-05-05T03:13:07.966Z,65.07
2019-05-05T03:28:15.819Z,65.67
2019-05-05T03:43:24.411Z,65.96
2019-05-05T03:58:35.695Z,65.92
2019-05-05T04:13:44.049Z,66.12
2019-05-05T04:28:51.119Z,65.56
2019-05-05T04:43:58.240Z,65.83
2019-05-05T04:59:05.431Z,64.47
2019-05-05T05:14:14.413Z,64.31
2019-05-05T05:29:21.538Z,64.62
2019-05-05T05:44:31.215Z,65.24
2019-05-05T05:59:38.200Z,64.27
2019-05-05T06:14:44.949Z,64.88
2019-05-05T06:29:54.265Z,64.90
2019-05-05T06:45:08.849Z,65.54
2019-05-05T07:00:16.525Z,65.20
2019-05-05T07:15:23.809Z,65.06
2019-05-05T07:30:33.607Z,64.45
2019-05-05T07:45:44.592Z,64.83
2019-05-05T08:00:54.124Z,64.28
2019-05-05T08:16:03.837Z,64.19
2019-05-05T08:31:14.494Z,64.67
2019-05-05T08:46:22.256Z,64.10
2019-05-05T09:01:31.620Z,63.61
2019-05-05T09:16:38.524Z,63.71
2019-05-05T09:31:47.322Z,64.09
2019-05-05T09:46:53.871Z,64.14
2019-05-05T10:02:00.907Z,63.65
2019-05-05T10:17:08.240Z,63.79
2019-05-05T10:32:15.113Z,63.26
2019-05-05T10:47:24.031Z,63.89
2019-05-05T11:02:31.033Z,63.85
2019-05-05T11:17:38.394Z,64.35
2019-05-05T11:33:04.019Z,63.95
2019-05-05T11:48:14.943Z,63.66
2019-05-05T12:03:22.156Z,63.06
2019-05-05T12:18:34.275Z,63.01
2019-05-05T12:33:41.608Z,62.63
2019-05-05T12:48:50.433Z,62.78
2019-05-05T13:03:57.055Z,63.18
2019-05-05T13:19:05.673Z,62.96
2019-05-05T13:34:13.653Z,62.58
2019-05-05T13:49:31.069Z,63.39
2019-05-05T14:04:40.899Z,62.72
2019-05-05T14:20:01.477Z,61.91
2019-05-05T14:35:05.319Z,62.68
2019-05-05T14:50:12.785Z,62.94
2019-05-05T15:05:37.116Z,62.74
2019-05-05T15:20:44.742Z,63.08
2019-05-05T15:35:53.856Z,64.80
2019-05-05T15:51:04.036Z,65.01
2019-05-05T16:06:11.108Z,64.66
2019-05-05T16:21:19.698Z,64.70
2019-05-05T16:36:25.894Z,65.65
2019-05-05T16:51:36.834Z,65.73
2019-05-05T17:06:50.338Z,65.18
2019-05-05T17:22:14.798Z,64.54
2019-05-05T17:37:23.811Z,64.73
2019-05-05T17:52:48.727Z,65.80
2019-05-05T18:07:56.152Z,66.34
2019-05-05T18:23:04.226Z,66.94
2019-05-05T18:38:11.155Z,66.92
2019-05-05T18:53:19.265Z,67.19
2019-05-05T19:08:27.701Z,67.26
2019-05-05T19:23:36.361Z,67.51
2019-05-05T19:38:44.147Z,67.35
2019-05-05T19:53:50.491Z,67.04
2019-05-05T20:08:59.690Z,67.09
2019-05-05T20:24:09.634Z,66.94
2019-05-05T20:39:17.583Z,67.05
2019-05-05T20:54:26.759Z,66.95
2019-05-05T21:09:34.601Z,66.99
2019-05-05T21:24:44.496Z,67.21
2019-05-05T21:39:51.188Z,67.22
2019-05-05T21:55:04.235Z,67.09
2019-05-05T22:10:13.475Z,67.14
2019-05-05T22:25:21.030Z,66.47
2019-05-05T22:40:28.361Z,65.56
2019-05-05T22:55:35.842Z,65.94
2019-05-05T23:10:43.787Z,66.43
2019-05-05T23:25:56.870Z,66.08
2019-05-05T23:41:03.908Z,66.74
2019-05-05T23:56:13.479Z,67.04
